Impacts TAF Board INFO
FOR SITUATIONAL AWARENESS. NOT TO BE USED FOR FLIGHT PLANNING PURPOSES.
IDs:

KMCO - Orlando Intl, FL, US

Issued at 1743 UTC 18 Jan 2018
Updated at 1927 UTC 18 Jan 2018
Potential Impact None Slight Moderate High
Time<<19/20Z 19/21Z 19/22Z 19/23Z 20/00Z 20/01Z 20/02Z 20/03Z 20/04Z 20/05Z 20/06Z 20/07Z 20/08Z
Type PRVL PRVL PRVL PRVL
VIS >6 >6 >6 >6
CIG -- -- -- --
Cover SCT SCT SCT SCT
FltCat VFR VFR VFR VFR
WX -- -- -- --
WDir 50 50 50 50
WSpd 5 5 5 5
WGst -- -- -- --

Raw TAF
KMCO 181743Z 1818/1924 02011KT P6SM SKC
  FM190000 36004KT P6SM SCT250
  FM191500 05005KT P6SM SCT250


METAR Board
Radar Display
Forecast Discussion

FOR SITUATIONAL AWARENESS. NOT TO BE USED FOR FLIGHT PLANNING PURPOSES.